This is the latest recevied weather packets stored in our database for station/object SV4JYD-13. If no packets are shown the sender has not sent any weather packets the latest 10 day(s).
| Time | Temp. | Humidity | Pressure | Rain* | Wind** | Luminosity | Snow |
|---|---|---|---|---|---|---|---|
| 1777190148 | 19.44° C | 10% | - | 0 mm | - | - | - |
| 1777189248 | 16.67° C | 87% | 1016 hPa | 0 mm | - | - | - |
| 1777188347 | 16.67° C | 83% | 1016 hPa | 0 mm | - | - | - |
| 1777187447 | 16.67° C | 78% | 1016 hPa | 0 mm | - | - | - |
| 1777186547 | 17.22° C | 72% | 1016 hPa | 0 mm | - | - | - |
| 1777185647 | 17.78° C | 64% | 1016 hPa | 0 mm | - | - | - |
| 1777184747 | 17.78° C | 64% | 1016 hPa | 0 mm | - | - | - |
| 1777183846 | 17.78° C | 65% | 1016 hPa | 0 mm | - | - | - |
| 1777182946 | 13.33° C | 10% | - | 0 mm | - | - | - |
| 1777182046 | 13.33° C | 10% | - | 0 mm | - | - | - |
| 1777181146 | 12.22° C | 10% | - | 0 mm | - | - | - |
| 1777180245 | 11.67° C | 89% | 1015 hPa | 0 mm | - | - | - |
| 1777179345 | 11.67° C | 86% | 1015 hPa | 0 mm | - | - | - |
| 1777178445 | 9.44° C | 78% | 1015 hPa | 0 mm | - | - | - |
| 1777177544 | 10.56° C | 89% | 1015 hPa | 0 mm | - | - | - |
| 1777176644 | 10.56° C | 89% | 1015 hPa | 0 mm | - | - | - |
| 1777175744 | 10.56° C | 89% | 1015 hPa | 0 mm | - | - | - |
| 1777174844 | 10.56° C | 89% | 1015 hPa | 0 mm | - | - | - |
| 1777173943 | 10.56° C | 85% | 1015 hPa | 0 mm | - | - | - |
| 1777173043 | 11.11° C | 81% | 1015 hPa | 0 mm | - | - | - |
| 1777172143 | 11.11° C | 82% | 1015 hPa | 0 mm | - | - | - |
| 1777171243 | 11.11° C | 84% | 1015 hPa | 0 mm | - | - | - |
| 1777170342 | 11.11° C | 81% | 1015 hPa | 0 mm | - | - | - |
| 1777169442 | 11.11° C | 82% | 1015 hPa | 0 mm | - | - | - |
| 1777168542 | 10.56° C | 88% | 1015 hPa | 0 mm | - | - | - |
* Rain latest hour (hover to see other rain measurements)
** Current wind speed in m/s (hover to see current wind gust speed)